Aviation Digital Data Service (ADDS)

Output produced by METARs form (1233 UTC 22 January 2022)
found at http://aviationweather.gov/metar/data/
 
METAR text: KCHD 220347Z 00000KT 10SM CLR 15/00 A2986 RMK LAST
Conditions at: KCHD (CHANDLER , AZ, US) observed 0347 UTC 22 January 2022
Temperature: 15.0°C (59°F)
Dewpoint: 0.0°C (32°F) [RH = 36%]
Pressure (altimeter): 29.86 inches Hg (1011.3 mb)
Winds: calm
Visibility: 10 or more miles (16+ km)
Ceiling: at least 12,000 feet AGL
Clouds: sky clear below 12,000 feet AGL
Weather: no significant weather observed at this time

METAR text: KCHD 220247Z 00000KT 10SM CLR 17/M01 A2987
Conditions at: KCHD (CHANDLER , AZ, US) observed 0247 UTC 22 January 2022
Temperature: 17.0°C (63°F)
Dewpoint: -1.0°C (30°F) [RH = 29%]
Pressure (altimeter): 29.87 inches Hg (1011.6 mb)
Winds: calm
Visibility: 10 or more miles (16+ km)
Ceiling: at least 12,000 feet AGL
Clouds: sky clear below 12,000 feet AGL
Weather: no significant weather observed at this time

METAR text: KCHD 220147Z 00000KT 10SM CLR 18/M01 A2988
Conditions at: KCHD (CHANDLER , AZ, US) observed 0147 UTC 22 January 2022
Temperature: 18.0°C (64°F)
Dewpoint: -1.0°C (30°F) [RH = 28%]
Pressure (altimeter): 29.88 inches Hg (1011.9 mb)
Winds: calm
Visibility: 10 or more miles (16+ km)
Ceiling: at least 12,000 feet AGL
Clouds: sky clear below 12,000 feet AGL
Weather: no significant weather observed at this time

METAR text: KCHD 220047Z 00000KT 10SM CLR 20/M01 A2987
Conditions at: KCHD (CHANDLER , AZ, US) observed 0047 UTC 22 January 2022
Temperature: 20.0°C (68°F)
Dewpoint: -1.0°C (30°F) [RH = 24%]
Pressure (altimeter): 29.87 inches Hg (1011.6 mb)
Winds: calm
Visibility: 10 or more miles (16+ km)
Ceiling: at least 12,000 feet AGL
Clouds: sky clear below 12,000 feet AGL
Weather: no significant weather observed at this time